Map

Track Data

SID SEASON NUMBER BASIN SUBBASIN NAME ISO_TIME NATURE LAT LON WMO_WIND WMO_PRES WMO_AGENCY TRACK_TYPE DIST2LAND LANDFALL IFLAG USA_AGENCY USA_ATCF_ID USA_LAT USA_LON USA_RECORD USA_STATUS USA_WIND USA_PRES USA_SSHS USA_R34_NE USA_R34_SE USA_R34_SW USA_R34_NW USA_R50_NE USA_R50_SE USA_R50_SW USA_R50_NW USA_R64_NE USA_R64_SE USA_R64_SW USA_R64_NW USA_POCI USA_ROCI USA_RMW USA_EYE TOKYO_LAT TOKYO_LON TOKYO_GRADE TOKYO_WIND TOKYO_PRES TOKYO_R50_DIR TOKYO_R50_LONG TOKYO_R50_SHORT TOKYO_R30_DIR TOKYO_R30_LONG TOKYO_R30_SHORT TOKYO_LAND CMA_LAT CMA_LON CMA_CAT CMA_WIND CMA_PRES HKO_LAT HKO_LON HKO_CAT HKO_WIND HKO_PRES NEWDELHI_LAT NEWDELHI_LON NEWDELHI_GRADE NEWDELHI_WIND NEWDELHI_PRES NEWDELHI_CI NEWDELHI_DP NEWDELHI_POCI REUNION_LAT REUNION_LON REUNION_TYPE REUNION_WIND REUNION_PRES REUNION_TNUM REUNION_CI REUNION_RMW REUNION_R34_NE REUNION_R34_SE REUNION_R34_SW REUNION_R34_NW REUNION_R50_NE REUNION_R50_SE REUNION_R50_SW REUNION_R50_NW REUNION_R64_NE REUNION_R64_SE REUNION_R64_SW REUNION_R64_NW BOM_LAT BOM_LON BOM_TYPE BOM_WIND BOM_PRES BOM_TNUM BOM_CI BOM_RMW BOM_R34_NE BOM_R34_SE BOM_R34_SW BOM_R34_NW BOM_R50_NE BOM_R50_SE BOM_R50_SW BOM_R50_NW BOM_R64_NE BOM_R64_SE BOM_R64_SW BOM_R64_NW BOM_ROCI BOM_POCI BOM_EYE BOM_POS_METHOD BOM_PRES_METHOD NADI_LAT NADI_LON NADI_CAT NADI_WIND NADI_PRES WELLINGTON_LAT WELLINGTON_LON WELLINGTON_WIND WELLINGTON_PRES DS824_LAT DS824_LON DS824_STAGE DS824_WIND DS824_PRES TD9636_LAT TD9636_LON TD9636_STAGE TD9636_WIND TD9636_PRES TD9635_LAT TD9635_LON TD9635_WIND TD9635_PRES TD9635_ROCI NEUMANN_LAT NEUMANN_LON NEUMANN_CLASS NEUMANN_WIND NEUMANN_PRES MLC_LAT MLC_LON MLC_CLASS MLC_WIND MLC_PRES USA_GUST BOM_GUST BOM_GUST_PER REUNION_GUST REUNION_GUST_PER USA_SEAHGT USA_SEARAD_NE USA_SEARAD_SE USA_SEARAD_SW USA_SEARAD_NW STORM_SPEED STORM_DIR
1968254N19091 1968 87 NI BB NOT_NAMED 1968-09-09 18:00:00 TS 18.9000 91.4000 main 206 206 O________O____ jtwc_io IO091968 18.9000 91.4000 -1 18.9000 91.4000 TC 1 0
1968254N19091 1968 87 NI BB NOT_NAMED 1968-09-09 21:00:00 TS 18.9425 91.3850 main 206 198 P________P____ IO091968 18.9425 91.3850 -1 18.9425 91.3850 TC 1 317
1968254N19091 1968 87 NI BB NOT_NAMED 1968-09-10 00:00:00 TS 19.0000 91.3000 main 206 206 O________O____ jtwc_io IO091968 19.0000 91.3000 -1 19.0000 91.3000 TC 25 3 298
1968254N19091 1968 87 NI BB NOT_NAMED 1968-09-10 03:00:00 TS 19.0866 91.0955 main 214 214 P________PO___ IO091968 19.0850 91.0950 -1 19.0850 91.0950 TC 25 19.1000 91.1000 1 5 293
1968254N19091 1968 87 NI BB NOT_NAMED 1968-09-10 06:00:00 TS 19.2061 90.7882 main 233 233 O________OP___ jtwc_io IO091968 19.2000 90.8000 -1 19.2000 90.8000 TC 25 19.2305 90.7412 1 7 293
1968254N19091 1968 87 NI BB NOT_NAMED 1968-09-10 09:00:00 TS 19.3524 90.4352 main 254 254 P________PP___ IO091968 19.3501 90.4501 -1 19.3501 90.4501 TC 25 19.3584 90.3956 1 7 294
1968254N19091 1968 87 NI BB NOT_NAMED 1968-09-10 12:00:00 TS 19.4941 90.0924 main 256 235 O________OP___ jtwc_io IO091968 19.5000 90.1000 -1 19.5000 90.1000 TC 25 19.4822 90.0773 1 6 293
1968254N19091 1968 87 NI BB NOT_NAMED 1968-09-10 15:00:00 TS 19.6049 89.8183 main 235 218 P________PO___ IO091968 19.6074 89.8274 -1 19.6074 89.8274 TC 25 19.6000 89.8000 1 5 294
1968254N19091 1968 87 NI BB NOT_NAMED 1968-09-10 18:00:00 TS 19.7036 89.5901 main 218 203 O________OP___ jtwc_io IO091968 19.7000 89.6000 -1 19.7000 89.6000 TC 25 19.7107 89.5703 1 4 297
1968254N19091 1968 87 NI BB NOT_NAMED 1968-09-10 21:00:00 TS 19.8047 89.3932 main 203 190 P________PP___ IO091968 19.7999 89.4074 -1 19.7999 89.4074 TC 25 19.8142 89.3646 1 4 298
1968254N19091 1968 87 NI BB NOT_NAMED 1968-09-11 00:00:00 TS 19.9036 89.1839 main 190 178 O________OP___ jtwc_io IO091968 19.9000 89.2000 -1 19.9000 89.2000 TC 25 19.9107 89.1516 1 5 294
1968254N19091 1968 87 NI BB NOT_NAMED 1968-09-11 03:00:00 TS 20.0050 88.9200 main 178 168 P________PO___ IO091968 20.0074 88.9300 -1 20.0074 88.9300 TC 30 20.0000 88.9000 1 6 291
1968254N19091 1968 87 NI BB NOT_NAMED 1968-09-11 06:00:00 TS 20.1102 88.5964 main 168 136 O________OP___ jtwc_io IO091968 20.1000 88.6000 -1 20.1000 88.6000 TC 35 20.1307 88.5893 1 7 286
1968254N19091 1968 87 NI BB NOT_NAMED 1968-09-11 09:00:00 TS 20.1923 88.2263 main 136 100 P________PP___ IO091968 20.1650 88.2225 -1 20.1650 88.2225 TC 35 20.2471 88.2338 1 7 280
1968254N19091 1968 87 NI BB NOT_NAMED 1968-09-11 12:00:00 TS 20.2383 87.8121 main 100 61 O________OP___ jtwc_io IO091968 20.2000 87.8000 -1 20.2000 87.8000 TC 35 20.3149 87.8364 1 8 275
1968254N19091 1968 87 NI BB NOT_NAMED 1968-09-11 15:00:00 TS 20.2682 87.3819 main 61 23 P________PO___ IO091968 20.2523 87.3729 -1 20.2523 87.3729 TC 35 20.3000 87.4000 3 9 266
1968254N19091 1968 87 NI BB NOT_NAMED 1968-09-11 18:00:00 TS 20.1738 86.8951 main 23 0 O________OP___ jtwc_io IO091968 20.2000 86.9000 -1 20.2000 86.9000 TC 35 20.1215 86.8852 3 10 249
1968254N19091 1968 87 NI BB NOT_NAMED 1968-09-11 21:00:00 TS 19.8989 86.3378 main 11 11 P________PP___ IO091968 19.9152 86.3343 -1 19.9152 86.3343 TC 30 19.8662 86.3448 3 12 241
1968254N19091 1968 87 NI BB NOT_NAMED 1968-09-12 00:00:00 TS 19.6009 85.8107 main 22 15 O________OP___ jtwc_io IO091968 19.6000 85.8000 -1 19.6000 85.8000 TC 25 19.6027 85.8322 3 10 242
1968254N19091 1968 87 NI BB NOT_NAMED 1968-09-12 03:00:00 TS 19.4366 85.3985 main 22 10 P________PO___ IO091968 19.4548 85.3978 -1 19.4548 85.3978 TC 25 19.4000 85.4000 1 7 252
1968254N19091 1968 87 NI BB NOT_NAMED 1968-09-12 06:00:00 TS 19.3787 85.0995 main 10 0 O________OP___ jtwc_io IO091968 19.4000 85.1000 -1 19.4000 85.1000 TC 25 19.3361 85.0984 1 5 261
1968254N19091 1968 87 NI BB NOT_NAMED 1968-09-12 09:00:00 TS 19.3613 84.8687 main 0 0 P________PP___ IO091968 19.3699 84.8625 -1 19.3699 84.8625 TC 25 19.3442 84.8810 1 4 274
1968254N19091 1968 87 NI BB NOT_NAMED 1968-09-12 12:00:00 TS 19.4017 84.7077 main 0 0 O________OP___ jtwc_io IO091968 19.4000 84.7000 -1 19.4000 84.7000 TC 25 19.4051 84.7231 1 3 296
1968254N19091 1968 87 NI BB NOT_NAMED 1968-09-12 15:00:00 TS 19.4900 84.5900 main 0 0 P________PO___ IO091968 19.4850 84.5850 -1 19.4850 84.5850 TC 25 19.5000 84.6000 1 3 316
1968254N19091 1968 87 NI BB NOT_NAMED 1968-09-12 18:00:00 TS 19.6049 84.4964 main 0 0 O________OP___ jtwc_io IO091968 19.6000 84.5000 -1 19.6000 84.5000 TC 25 19.6122 84.4910 1 3 322
1968254N19091 1968 87 NI BB NOT_NAMED 1968-09-12 21:00:00 TS 19.7180 84.3985 main 0 0 P________PP___ IO091968 19.7050 84.4050 -1 19.7050 84.4050 TC 25 19.7353 84.3897 1 3 320
1968254N19091 1968 87 NI BB NOT_NAMED 1968-09-13 00:00:00 TS 19.8329 84.2968 main 0 0 O________OP___ jtwc_io IO091968 19.8000 84.3000 -1 19.8000 84.3000 TC 25 19.8658 84.2936 1 3 327
1968254N19091 1968 87 NI BB NOT_NAMED 1968-09-13 03:00:00 NR 20.0000 84.2000 main 0 __________O___ IO091968 -1 TC 20.0000 84.2000 1 4 332

About IBTrACS Database

This database is a web-friendly format of International Best Track Archive for Climate Stewardship (IBTrACS), a global best track data archive curated by NOAA dating back to 1842.

Updated: 2021-11-26